createdAt,value
2023-02-03T00:02:25.874Z,3.67
2023-02-03T00:04:53.466Z,2.20
2023-02-03T00:07:21.171Z,3.80
2023-02-03T00:09:48.880Z,4.57
2023-02-03T00:12:16.839Z,2.00
2023-02-03T00:14:45.799Z,3.87
2023-02-03T00:17:15.244Z,2.33
2023-02-03T00:19:42.855Z,2.07
2023-02-03T00:22:10.651Z,1.37
2023-02-03T00:24:38.344Z,2.10
2023-02-03T00:27:05.992Z,2.73
2023-02-03T00:29:33.672Z,2.03
2023-02-03T00:32:02.855Z,2.00
2023-02-03T00:34:31.380Z,1.43
2023-02-03T00:36:59.644Z,2.60
2023-02-03T00:39:27.282Z,2.30
2023-02-03T00:41:55.024Z,1.83
2023-02-03T00:44:23.734Z,2.10
2023-02-03T00:46:52.212Z,1.83
2023-02-03T00:49:21.191Z,4.50
2023-02-03T00:51:48.855Z,1.60
2023-02-03T00:54:16.606Z,1.73
2023-02-03T00:56:44.698Z,1.93
2023-02-03T00:59:13.014Z,2.63
2023-02-03T01:01:40.744Z,3.20
2023-02-03T01:04:08.445Z,1.93
2023-02-03T01:06:37.418Z,3.30
2023-02-03T01:09:05.333Z,3.17
2023-02-03T01:11:34.930Z,2.83
2023-02-03T01:14:02.555Z,2.57
2023-02-03T01:16:35.849Z,3.00
2023-02-03T01:19:03.556Z,2.10
2023-02-03T01:21:31.478Z,1.90
2023-02-03T01:24:01.202Z,2.87
2023-02-03T01:26:29.536Z,2.90
2023-02-03T01:28:58.827Z,3.83
2023-02-03T01:31:29.474Z,3.80
2023-02-03T01:33:58.774Z,2.33
2023-02-03T01:36:28.921Z,3.03
2023-02-03T01:38:56.985Z,2.73
2023-02-03T01:41:28.142Z,1.97
2023-02-03T01:43:58.012Z,2.10
2023-02-03T01:46:29.841Z,2.17
2023-02-03T01:49:05.316Z,1.77
2023-02-03T01:51:33.371Z,2.00
2023-02-03T01:54:01.741Z,1.77
2023-02-03T01:56:35.296Z,2.40
2023-02-03T01:59:03.322Z,1.93
2023-02-03T02:01:32.755Z,1.80
2023-02-03T02:04:03.859Z,1.70
2023-02-03T02:06:31.829Z,1.73
2023-02-03T02:09:00.977Z,1.40
2023-02-03T02:11:30.793Z,1.50
2023-02-03T02:14:01.363Z,1.83
2023-02-03T02:16:40.401Z,1.90
2023-02-03T02:19:35.292Z,2.37
2023-02-03T02:22:11.265Z,2.53
2023-02-03T02:25:05.593Z,3.63
2023-02-03T02:28:08.291Z,3.47
2023-02-03T02:30:48.838Z,5.10
2023-02-03T02:33:30.673Z,5.30
2023-02-03T02:36:06.716Z,6.03
2023-02-03T02:38:46.579Z,7.40
2023-02-03T02:41:21.136Z,6.90
2023-02-03T02:43:57.569Z,7.20
2023-02-03T02:46:30.019Z,8.93
2023-02-03T02:49:06.269Z,9.27
2023-02-03T02:51:35.402Z,13.23
2023-02-03T02:54:06.763Z,10.67
2023-02-03T02:56:37.790Z,11.60
2023-02-03T02:59:08.068Z,11.93
2023-02-03T03:01:35.910Z,13.40
2023-02-03T03:04:07.298Z,12.83
2023-02-03T03:06:39.103Z,11.27
2023-02-03T03:09:11.075Z,15.87
2023-02-03T03:11:44.991Z,13.77
2023-02-03T03:14:16.469Z,13.67
2023-02-03T03:16:49.638Z,14.00
2023-02-03T03:19:22.397Z,15.00
2023-02-03T03:21:53.631Z,15.73
2023-02-03T03:24:28.816Z,16.67
2023-02-03T03:27:03.033Z,15.03
2023-02-03T03:29:35.267Z,14.67
2023-02-03T03:32:03.941Z,14.23
2023-02-03T03:34:33.640Z,16.97
2023-02-03T03:37:07.035Z,14.83
2023-02-03T03:39:44.031Z,15.43
2023-02-03T03:42:18.773Z,19.33
2023-02-03T03:44:54.392Z,18.33
2023-02-03T03:47:28.667Z,14.93
2023-02-03T03:50:00.876Z,14.97
2023-02-03T03:52:32.443Z,15.27
2023-02-03T03:55:02.515Z,15.67
2023-02-03T03:57:35.192Z,12.43
2023-02-03T04:00:04.053Z,14.27
2023-02-03T04:02:41.288Z,14.00
2023-02-03T04:05:13.473Z,12.00
2023-02-03T04:07:47.874Z,12.27
2023-02-03T04:10:23.190Z,12.50
2023-02-03T04:12:50.902Z,14.47
2023-02-03T04:15:20.171Z,15.80
2023-02-03T04:17:47.900Z,12.90
2023-02-03T04:20:17.369Z,11.97
2023-02-03T04:22:47.751Z,12.37
2023-02-03T04:25:15.453Z,12.07
2023-02-03T04:27:43.150Z,12.63
2023-02-03T04:30:12.265Z,13.40
2023-02-03T04:32:39.934Z,10.77
2023-02-03T04:35:08.750Z,12.13
2023-02-03T04:37:37.951Z,12.03
2023-02-03T04:40:06.536Z,11.67
2023-02-03T04:42:34.219Z,10.27
2023-02-03T04:45:01.864Z,10.40
2023-02-03T04:47:29.498Z,13.00
2023-02-03T04:49:57.284Z,12.20
2023-02-03T04:52:25.013Z,10.83
2023-02-03T04:54:54.010Z,9.63
2023-02-03T04:57:21.719Z,11.33
2023-02-03T04:59:49.377Z,10.67
2023-02-03T05:02:17.127Z,9.97
2023-02-03T05:04:44.810Z,8.27
2023-02-03T05:07:15.619Z,7.50
2023-02-03T05:09:43.280Z,9.43
2023-02-03T05:12:12.283Z,9.37
2023-02-03T05:14:39.946Z,8.03
2023-02-03T05:17:07.570Z,10.67
2023-02-03T05:19:35.393Z,8.77
2023-02-03T05:22:03.026Z,12.70
2023-02-03T05:24:30.800Z,8.40
2023-02-03T05:26:58.397Z,8.43
2023-02-03T05:29:27.359Z,8.30
2023-02-03T05:31:55.086Z,8.17
2023-02-03T05:34:22.773Z,8.93
2023-02-03T05:36:50.431Z,8.73
2023-02-03T05:39:18.028Z,9.63
2023-02-03T05:41:54.902Z,10.97
2023-02-03T05:44:25.227Z,8.43
2023-02-03T05:46:56.085Z,8.47
2023-02-03T05:49:24.131Z,6.27
2023-02-03T05:51:52.720Z,7.33
2023-02-03T05:54:20.524Z,9.10
2023-02-03T05:56:48.142Z,7.43
2023-02-03T05:59:16.057Z,7.73
2023-02-03T06:01:44.013Z,6.67
2023-02-03T06:04:13.051Z,6.43
2023-02-03T06:06:40.736Z,5.93
2023-02-03T06:09:09.781Z,6.57
2023-02-03T06:11:37.503Z,6.43
2023-02-03T06:14:05.793Z,7.43
2023-02-03T06:16:33.507Z,8.00
2023-02-03T06:19:02.097Z,8.37
2023-02-03T06:21:31.190Z,9.60
2023-02-03T06:23:58.978Z,9.13
2023-02-03T06:26:26.656Z,6.27
2023-02-03T06:28:54.299Z,7.10
2023-02-03T06:31:22.045Z,6.50
2023-02-03T06:33:49.698Z,9.67
2023-02-03T06:36:17.320Z,6.33
2023-02-03T06:38:46.219Z,6.73
2023-02-03T06:41:13.826Z,6.10
2023-02-03T06:43:41.384Z,9.30
2023-02-03T06:46:09.146Z,8.10
2023-02-03T06:48:36.777Z,8.10
2023-02-03T06:51:05.609Z,8.57
2023-02-03T06:53:33.194Z,7.13
2023-02-03T06:56:03.437Z,7.97
2023-02-03T06:58:31.185Z,7.43
2023-02-03T07:00:58.995Z,7.20
2023-02-03T07:03:26.649Z,7.53
2023-02-03T07:05:54.343Z,6.20
2023-02-03T07:08:22.147Z,5.47
2023-02-03T07:10:54.542Z,7.80
2023-02-03T07:13:23.454Z,12.93
2023-02-03T07:15:52.083Z,6.93
2023-02-03T07:18:45.709Z,13.27
2023-02-03T07:21:12.258Z,5.90
2023-02-03T07:23:39.887Z,6.57
2023-02-03T07:26:08.463Z,8.77
2023-02-03T07:28:38.126Z,6.37
2023-02-03T07:31:08.121Z,8.30
2023-02-03T07:33:35.821Z,5.77
2023-02-03T07:36:04.360Z,6.07
2023-02-03T07:38:32.099Z,6.90
2023-02-03T07:40:59.943Z,7.07
2023-02-03T07:43:27.540Z,7.60
2023-02-03T07:45:56.458Z,6.33
2023-02-03T07:48:24.497Z,7.20
2023-02-03T07:50:52.916Z,7.63
2023-02-03T07:53:20.655Z,8.93
2023-02-03T07:55:48.259Z,5.50
2023-02-03T07:58:17.018Z,6.83
2023-02-03T08:00:44.708Z,7.90
2023-02-03T08:03:13.684Z,7.97
2023-02-03T08:05:41.318Z,5.50
2023-02-03T08:08:08.979Z,4.37
2023-02-03T08:10:36.615Z,5.17
2023-02-03T08:13:04.237Z,5.60
2023-02-03T08:15:31.862Z,5.50
2023-02-03T08:17:59.591Z,5.50
2023-02-03T08:20:29.124Z,4.03
2023-02-03T08:22:56.902Z,4.73
2023-02-03T08:25:24.549Z,5.47
2023-02-03T08:27:53.791Z,7.17
2023-02-03T08:30:21.603Z,4.97
2023-02-03T08:32:49.208Z,4.43
2023-02-03T08:35:16.845Z,6.13
2023-02-03T08:37:45.879Z,4.57
2023-02-03T08:40:14.184Z,7.13
2023-02-03T08:42:41.868Z,6.93
2023-02-03T08:45:09.952Z,5.47
2023-02-03T08:47:37.959Z,4.13
2023-02-03T08:50:07.707Z,4.87
2023-02-03T08:52:35.320Z,5.47
2023-02-03T08:55:04.659Z,4.47
2023-02-03T08:57:34.272Z,2.93
2023-02-03T09:00:02.110Z,4.07
2023-02-03T09:02:29.836Z,2.87
2023-02-03T09:04:57.496Z,3.23
2023-02-03T09:07:25.198Z,2.93
2023-02-03T09:09:52.859Z,1.73
2023-02-03T09:12:21.798Z,2.03
2023-02-03T09:14:49.480Z,3.27
2023-02-03T09:17:17.253Z,4.10
2023-02-03T09:19:44.858Z,3.37
2023-02-03T09:22:13.436Z,2.30
2023-02-03T09:24:41.359Z,4.00
2023-02-03T09:27:08.968Z,2.77
2023-02-03T09:29:37.909Z,3.00
2023-02-03T09:32:08.980Z,3.20
2023-02-03T09:34:36.710Z,2.40
2023-02-03T09:37:04.653Z,2.57
2023-02-03T09:39:32.522Z,1.67
2023-02-03T09:42:26.002Z,1.90
2023-02-03T09:45:03.830Z,2.03
2023-02-03T09:47:36.705Z,2.20
2023-02-03T09:50:07.161Z,3.50
2023-02-03T09:52:39.378Z,2.57
2023-02-03T09:55:14.373Z,2.50
2023-02-03T09:57:51.517Z,3.83
2023-02-03T10:00:23.329Z,4.70
2023-02-03T10:02:59.554Z,2.13
2023-02-03T10:05:38.191Z,3.03
2023-02-03T10:08:16.684Z,4.13
2023-02-03T10:11:09.460Z,4.77
2023-02-03T10:13:47.951Z,4.07
2023-02-03T10:16:32.722Z,3.47
2023-02-03T10:19:04.380Z,4.93
2023-02-03T10:21:38.145Z,4.17
2023-02-03T10:24:12.186Z,2.60
2023-02-03T10:26:41.170Z,4.07
2023-02-03T10:29:19.219Z,8.37
2023-02-03T10:31:49.401Z,6.30
2023-02-03T10:34:19.857Z,5.23
2023-02-03T10:36:55.837Z,3.57
2023-02-03T10:39:32.096Z,5.70
2023-02-03T10:42:00.496Z,5.17
2023-02-03T10:44:37.810Z,4.73
2023-02-03T10:47:21.550Z,5.87
2023-02-03T10:49:51.766Z,6.90
2023-02-03T10:52:27.987Z,4.93
2023-02-03T10:54:56.483Z,5.13
2023-02-03T10:57:24.242Z,4.57
2023-02-03T10:59:51.881Z,4.47
2023-02-03T11:02:27.043Z,4.20
2023-02-03T11:05:20.423Z,6.70
2023-02-03T11:07:49.135Z,6.60
2023-02-03T11:10:28.125Z,5.33
2023-02-03T11:13:12.685Z,7.70
2023-02-03T11:15:45.535Z,5.37
2023-02-03T11:18:42.998Z,4.67
2023-02-03T11:21:14.067Z,4.70
2023-02-03T11:23:55.787Z,5.97
2023-02-03T11:26:28.453Z,4.37
2023-02-03T11:28:59.728Z,5.60
2023-02-03T11:31:29.824Z,6.13
2023-02-03T11:34:03.176Z,13.20
2023-02-03T11:36:32.702Z,6.77
2023-02-03T11:39:29.014Z,7.10
2023-02-03T11:41:57.126Z,6.50
2023-02-03T11:44:29.237Z,9.10
2023-02-03T11:47:00.875Z,7.67
2023-02-03T11:49:54.089Z,6.17
2023-02-03T11:52:48.760Z,7.23
2023-02-03T11:55:26.642Z,9.37
2023-02-03T11:58:13.690Z,10.17
2023-02-03T12:00:50.476Z,8.77
2023-02-03T12:04:06.360Z,11.57
2023-02-03T12:06:59.573Z,8.10
2023-02-03T12:09:40.376Z,12.13
2023-02-03T12:12:30.812Z,9.67
2023-02-03T12:15:15.529Z,16.90
2023-02-03T12:18:01.294Z,13.87
2023-02-03T12:20:41.087Z,17.10
2023-02-03T12:23:25.083Z,13.53
2023-02-03T12:26:05.152Z,12.07
2023-02-03T12:28:48.875Z,15.23
2023-02-03T12:31:22.260Z,12.63
2023-02-03T12:33:55.228Z,11.30
2023-02-03T12:36:29.493Z,10.60
2023-02-03T12:39:03.605Z,13.67
2023-02-03T12:41:36.249Z,14.33
2023-02-03T12:44:09.665Z,11.47
2023-02-03T12:46:41.554Z,12.83
2023-02-03T12:49:17.488Z,14.90
2023-02-03T12:51:50.648Z,15.50
2023-02-03T12:54:32.183Z,16.23
2023-02-03T12:57:11.743Z,15.33
2023-02-03T12:59:41.538Z,10.03
2023-02-03T13:02:18.436Z,13.63
2023-02-03T13:04:54.303Z,18.63
2023-02-03T13:07:28.555Z,11.70
2023-02-03T13:10:04.971Z,19.03
2023-02-03T13:12:37.138Z,13.13
2023-02-03T13:15:17.159Z,21.57
2023-02-03T13:17:51.539Z,17.70
2023-02-03T13:20:22.952Z,14.47
2023-02-03T13:22:52.903Z,15.50
2023-02-03T13:25:26.836Z,25.73
2023-02-03T13:28:07.871Z,18.53
2023-02-03T13:30:53.911Z,15.97
2023-02-03T13:33:46.677Z,14.13
2023-02-03T13:36:37.263Z,14.80
2023-02-03T13:39:33.628Z,13.97
2023-02-03T13:42:20.901Z,12.67
2023-02-03T13:44:52.077Z,15.13
2023-02-03T13:47:24.033Z,12.10
2023-02-03T13:49:55.929Z,16.27
2023-02-03T13:52:35.221Z,15.73
2023-02-03T13:55:04.194Z,14.40
2023-02-03T13:57:38.625Z,9.33
2023-02-03T14:00:28.835Z,11.37
2023-02-03T14:02:57.391Z,15.37
2023-02-03T14:05:43.559Z,14.87
2023-02-03T14:08:55.592Z,14.63
2023-02-03T14:11:43.152Z,17.67
2023-02-03T14:14:44.390Z,17.23
2023-02-03T14:18:01.540Z,12.20
2023-02-03T14:20:49.407Z,15.47
2023-02-03T14:23:21.629Z,18.07
2023-02-03T14:25:54.941Z,15.90
2023-02-03T14:28:26.327Z,10.73
2023-02-03T14:31:12.612Z,14.57
2023-02-03T14:33:58.234Z,17.03
2023-02-03T14:36:45.541Z,18.33
2023-02-03T14:39:43.621Z,12.70
2023-02-03T14:42:22.981Z,14.97
2023-02-03T14:45:06.453Z,15.13
2023-02-03T14:47:49.943Z,16.10
2023-02-03T14:50:27.326Z,13.17
2023-02-03T14:53:08.988Z,13.33
2023-02-03T14:55:52.006Z,18.83
2023-02-03T14:58:29.261Z,12.07
2023-02-03T15:00:58.085Z,12.90
2023-02-03T15:03:31.054Z,10.03
2023-02-03T15:06:02.468Z,12.73
2023-02-03T15:08:40.862Z,16.10
2023-02-03T15:11:44.132Z,9.30
2023-02-03T15:14:20.049Z,14.63
2023-02-03T15:16:51.839Z,14.00
2023-02-03T15:19:24.634Z,10.37
2023-02-03T15:21:52.298Z,11.67
2023-02-03T15:24:23.853Z,12.97
2023-02-03T15:26:53.149Z,9.60
2023-02-03T15:29:24.789Z,12.17
2023-02-03T15:31:59.525Z,11.53
2023-02-03T15:34:32.807Z,11.17
2023-02-03T15:37:04.530Z,14.90
2023-02-03T15:39:42.914Z,11.53
2023-02-03T15:42:18.949Z,13.03
2023-02-03T15:44:52.778Z,25.30
2023-02-03T15:47:26.293Z,14.30
2023-02-03T15:50:03.246Z,13.50
2023-02-03T15:52:33.857Z,16.83
2023-02-03T15:55:12.471Z,17.70
2023-02-03T15:57:40.212Z,10.50
2023-02-03T16:00:13.592Z,19.00
2023-02-03T16:02:46.208Z,11.60
2023-02-03T16:05:25.132Z,15.27
2023-02-03T16:07:52.895Z,14.10
2023-02-03T16:10:27.474Z,12.53
2023-02-03T16:12:55.842Z,11.40
2023-02-03T16:15:25.991Z,13.93
2023-02-03T16:17:57.111Z,12.77
2023-02-03T16:20:29.125Z,13.87
2023-02-03T16:23:07.366Z,13.10
2023-02-03T16:25:36.277Z,11.53
2023-02-03T16:28:32.476Z,13.70
2023-02-03T16:31:20.077Z,21.13
2023-02-03T16:34:07.958Z,15.27
2023-02-03T16:36:59.085Z,20.27
2023-02-03T16:39:45.555Z,13.73
2023-02-03T16:42:34.769Z,14.87
2023-02-03T16:45:19.985Z,14.13
2023-02-03T16:48:05.822Z,17.00
2023-02-03T16:50:54.253Z,12.83
2023-02-03T16:53:25.014Z,16.97
2023-02-03T16:55:54.473Z,11.77
2023-02-03T16:58:22.639Z,13.43
2023-02-03T17:00:53.132Z,12.70
2023-02-03T17:03:23.063Z,14.63
2023-02-03T17:05:52.072Z,15.37
2023-02-03T17:08:22.009Z,15.37
2023-02-03T17:10:52.197Z,18.20
2023-02-03T17:13:21.570Z,10.70
2023-02-03T17:15:52.742Z,16.80
2023-02-03T17:18:21.076Z,15.10
2023-02-03T17:20:49.102Z,16.97
2023-02-03T17:23:17.529Z,16.70
2023-02-03T17:25:46.246Z,13.43
2023-02-03T17:28:16.003Z,13.80
2023-02-03T17:30:43.797Z,17.87
2023-02-03T17:33:15.409Z,12.30
2023-02-03T17:35:45.340Z,13.37
2023-02-03T17:38:14.601Z,13.27
2023-02-03T17:54:36.742Z,14.57
2023-02-03T17:57:04.593Z,12.07
2023-02-03T17:59:35.494Z,15.60
2023-02-03T18:02:03.186Z,12.67
2023-02-03T18:04:31.185Z,16.17
2023-02-03T18:06:58.893Z,17.00
2023-02-03T18:09:26.652Z,15.37
2023-02-03T18:11:54.388Z,13.80
2023-02-03T18:14:22.082Z,14.13
2023-02-03T18:16:51.254Z,18.43
2023-02-03T18:19:19.074Z,17.47
2023-02-03T18:21:46.844Z,15.37
2023-02-03T18:24:16.917Z,19.20
2023-02-03T18:26:49.856Z,17.00
2023-02-03T18:29:18.172Z,14.70
2023-02-03T18:31:46.183Z,12.10
2023-02-03T18:34:16.295Z,11.53
2023-02-03T18:36:44.026Z,16.63
2023-02-03T18:39:12.740Z,17.27
2023-02-03T18:41:40.720Z,14.40
2023-02-03T18:44:08.523Z,14.13
2023-02-03T18:46:36.370Z,17.43
2023-02-03T18:49:04.512Z,22.53
2023-02-03T18:51:33.790Z,17.10
2023-02-03T18:54:01.696Z,13.27
2023-02-03T18:56:35.396Z,16.83
2023-02-03T18:59:10.157Z,16.37
2023-02-03T19:01:39.690Z,15.20
2023-02-03T19:04:07.974Z,16.57
2023-02-03T19:06:37.418Z,16.57
2023-02-03T19:09:06.503Z,17.07
2023-02-03T19:11:35.043Z,16.03
2023-02-03T19:14:02.903Z,14.87
2023-02-03T19:16:31.450Z,14.33
2023-02-03T19:18:59.119Z,14.00
2023-02-03T19:21:26.889Z,18.57
2023-02-03T19:23:55.835Z,19.43
2023-02-03T19:26:23.520Z,14.97
2023-02-03T19:28:52.591Z,16.67
2023-02-03T19:31:20.355Z,17.63
2023-02-03T19:33:48.077Z,17.67
2023-02-03T19:36:15.882Z,15.33
2023-02-03T19:38:43.571Z,12.63
2023-02-03T19:41:12.709Z,14.67
2023-02-03T19:43:40.960Z,16.20
2023-02-03T19:46:08.734Z,16.60
2023-02-03T19:48:36.959Z,14.53
2023-02-03T19:51:04.838Z,14.27
2023-02-03T19:53:32.600Z,17.00
2023-02-03T19:56:00.217Z,20.30
2023-02-03T19:58:30.666Z,18.73
2023-02-03T20:00:58.353Z,12.53
2023-02-03T20:03:26.036Z,12.70
2023-02-03T20:05:54.015Z,19.27
2023-02-03T20:08:21.685Z,17.90
2023-02-03T20:10:49.433Z,13.00
2023-02-03T20:13:17.060Z,15.67
2023-02-03T20:15:47.561Z,17.83
2023-02-03T20:18:15.271Z,16.40
2023-02-03T20:20:42.944Z,18.30
2023-02-03T20:23:10.729Z,20.80
2023-02-03T20:25:38.296Z,17.63
2023-02-03T20:28:05.906Z,14.53
2023-02-03T20:30:33.708Z,18.93
2023-02-03T20:33:04.747Z,15.57
2023-02-03T20:35:32.489Z,16.83
2023-02-03T20:38:00.252Z,17.27
2023-02-03T20:40:29.654Z,18.57
2023-02-03T20:42:57.482Z,15.93
2023-02-03T20:45:25.640Z,14.37
2023-02-03T20:47:53.233Z,14.17
2023-02-03T20:50:31.568Z,24.70
2023-02-03T20:53:12.665Z,21.63
2023-02-03T20:55:40.245Z,13.13
2023-02-03T20:58:17.692Z,16.47
2023-02-03T21:00:45.802Z,13.67
2023-02-03T21:03:33.614Z,12.17
2023-02-03T21:06:02.936Z,16.10
2023-02-03T21:08:30.691Z,13.93
2023-02-03T21:10:58.259Z,14.43
2023-02-03T21:13:27.662Z,14.93
2023-02-03T21:15:57.011Z,14.20
2023-02-03T21:18:35.786Z,11.53
2023-02-03T21:21:05.351Z,12.23
2023-02-03T21:23:39.807Z,11.13
2023-02-03T21:26:17.774Z,10.03
2023-02-03T21:28:45.726Z,13.20
2023-02-03T21:31:25.866Z,11.23
2023-02-03T21:33:54.927Z,10.30
2023-02-03T21:36:25.551Z,8.50
2023-02-03T21:38:55.263Z,12.00
2023-02-03T21:41:24.518Z,6.60
2023-02-03T21:43:54.539Z,10.27
2023-02-03T21:46:26.552Z,8.37
2023-02-03T21:48:55.389Z,9.83
2023-02-03T21:51:26.627Z,8.63
2023-02-03T21:53:56.218Z,6.20
2023-02-03T21:56:26.458Z,12.07
2023-02-03T21:58:57.522Z,10.33
2023-02-03T22:01:26.160Z,10.43
2023-02-03T22:03:55.310Z,8.60
2023-02-03T22:06:27.733Z,8.40
2023-02-03T22:08:56.991Z,8.13
2023-02-03T22:11:27.370Z,7.53
2023-02-03T22:13:55.318Z,9.23
2023-02-03T22:16:23.274Z,9.07
2023-02-03T22:18:50.899Z,11.50
2023-02-03T22:21:19.129Z,7.83
2023-02-03T22:23:48.554Z,9.37
2023-02-03T22:26:17.196Z,9.90
2023-02-03T22:28:45.474Z,7.60
2023-02-03T22:31:14.027Z,7.37
2023-02-03T22:33:42.889Z,8.23
2023-02-03T22:36:11.675Z,8.57
2023-02-03T22:38:40.776Z,8.97
2023-02-03T22:41:11.829Z,11.73
2023-02-03T22:43:40.043Z,7.67
2023-02-03T22:46:07.809Z,7.23
2023-02-03T22:48:36.010Z,3.40
2023-02-03T22:51:03.912Z,4.23
2023-02-03T22:53:31.584Z,5.63
2023-02-03T22:55:59.185Z,5.00
2023-02-03T22:58:28.125Z,2.30
2023-02-03T23:00:55.878Z,2.67
2023-02-03T23:03:23.530Z,2.63
2023-02-03T23:05:51.258Z,1.10
2023-02-03T23:08:18.863Z,1.30
2023-02-03T23:10:48.196Z,1.10
2023-02-03T23:13:15.859Z,1.73
2023-02-03T23:15:44.831Z,1.00
2023-02-03T23:18:12.431Z,2.17
2023-02-03T23:20:40.098Z,0.80
2023-02-03T23:23:07.894Z,1.10
2023-02-03T23:25:35.508Z,2.63
2023-02-03T23:28:03.122Z,1.07
2023-02-03T23:30:31.102Z,1.33
2023-02-03T23:33:00.263Z,2.27
2023-02-03T23:35:44.550Z,1.60
2023-02-03T23:38:12.606Z,1.00
2023-02-03T23:40:40.224Z,0.70
2023-02-03T23:43:07.805Z,0.40
2023-02-03T23:45:35.471Z,0.87
2023-02-03T23:48:05.123Z,1.97
2023-02-03T23:50:33.090Z,1.87
2023-02-03T23:53:00.868Z,1.50
2023-02-03T23:55:29.061Z,1.13
2023-02-03T23:57:56.623Z,0.90
